Time;durP1;ratioP1;P1;durP2;ratioP2;P2;SDS_P1;SDS_P2;PMS_P1;PMS_P2;Temp;Humidity;BMP_temperature;BMP_pressure;BME280_temperature;BME280_humidity;BME280_pressure;Samples;Min_cycle;Max_cycle;Signal;HPM_P1;HPM_P2
2022/05/26 00:01:06;;;;;;;0.95;0.30;;;24.60;40.60;;;;;;5137231;27;20030;-36
2022/05/26 00:03:33;;;;;;;1.55;0.40;;;24.60;40.60;;;;;;5138148;27;20019;-36
2022/05/26 00:05:59;;;;;;;2.50;0.43;;;24.60;40.70;;;;;;5137831;27;20056;-37
2022/05/26 00:08:27;;;;;;;0.80;0.32;;;24.60;40.70;;;;;;5138356;27;20019;-36
2022/05/26 00:10:56;;;;;;;1.67;0.45;;;24.50;40.70;;;;;;5137857;27;20022;-35
2022/05/26 00:13:22;;;;;;;1.17;0.40;;;24.50;40.80;;;;;;5137943;27;20019;-35
2022/05/26 00:15:49;;;;;;;1.00;0.40;;;24.50;40.80;;;;;;5137841;27;20022;-36
2022/05/26 00:18:15;;;;;;;1.00;0.40;;;24.50;40.90;;;;;;5136670;27;20012;-38
2022/05/26 00:20:41;;;;;;;1.13;0.50;;;24.50;41.00;;;;;;5137717;27;20026;-36
2022/05/26 00:23:06;;;;;;;1.10;0.40;;;24.50;41.00;;;;;;5137701;27;20034;-36
2022/05/26 00:25:33;;;;;;;0.93;0.30;;;24.50;41.00;;;;;;5137458;27;20016;-39
2022/05/26 00:28:00;;;;;;;0.90;0.40;;;24.50;41.00;;;;;;5137281;27;20007;-36
2022/05/26 00:30:27;;;;;;;0.82;0.38;;;24.50;41.10;;;;;;5137497;27;20019;-39
2022/05/26 00:32:53;;;;;;;2.17;0.43;;;24.50;41.20;;;;;;5136984;27;20477;-40
2022/05/26 00:35:19;;;;;;;1.40;0.63;;;24.50;41.20;;;;;;5135219;27;20019;-38
2022/05/26 00:37:46;;;;;;;1.42;0.40;;;24.50;41.20;;;;;;5136710;27;20031;-38
2022/05/26 00:40:12;;;;;;;1.20;0.47;;;24.50;41.30;;;;;;5136251;27;20465;-38
2022/05/26 00:42:39;;;;;;;1.60;0.63;;;24.50;41.30;;;;;;5136043;27;20049;-38
2022/05/26 00:45:06;;;;;;;1.23;0.60;;;24.50;41.40;;;;;;5136058;27;20026;-38
2022/05/26 00:47:33;;;;;;;1.13;0.40;;;24.50;41.40;;;;;;5134840;27;20457;-39
2022/05/26 00:50:05;;;;;;;1.95;0.30;;;24.50;41.40;;;;;;5135026;27;20470;-39
2022/05/26 00:52:34;;;;;;;1.55;0.47;;;24.50;41.50;;;;;;5135705;27;20067;-39
2022/05/26 00:55:01;;;;;;;1.58;0.50;;;24.50;41.50;;;;;;5135559;27;20461;-39
2022/05/26 00:57:36;;;;;;;1.10;0.35;;;24.50;41.50;;;;;;5135478;27;20012;-39
2022/05/26 01:00:07;;;;;;;1.15;0.38;;;24.50;41.60;;;;;;5137210;27;20007;-40
2022/05/26 01:02:40;;;;;;;2.22;0.40;;;24.50;41.60;;;;;;5136774;27;20023;-38
2022/05/26 01:05:17;;;;;;;2.60;0.70;;;24.50;41.70;;;;;;5134785;27;20028;-39
2022/05/26 01:07:43;;;;;;;1.65;0.40;;;24.50;41.70;;;;;;5134373;27;20543;-39
2022/05/26 01:10:11;;;;;;;1.45;0.35;;;24.50;41.80;;;;;;5135566;27;20102;-40
2022/05/26 01:12:37;;;;;;;1.92;0.60;;;24.40;41.70;;;;;;5134488;27;20042;-39
2022/05/26 01:15:08;;;;;;;0.77;0.40;;;24.40;41.70;;;;;;5135457;27;20515;-39
2022/05/26 01:17:56;;;;;;;2.17;0.60;;;24.40;41.80;;;;;;5134268;27;20030;-39
2022/05/26 01:20:28;;;;;;;0.90;0.40;;;24.40;41.80;;;;;;5135529;27;20015;-39
2022/05/26 01:23:12;;;;;;;2.53;0.60;;;24.40;41.90;;;;;;5136768;27;20042;-40
2022/05/26 01:25:37;;;;;;;2.05;0.40;;;24.40;41.90;;;;;;5138224;27;20095;-40
2022/05/26 01:28:27;;;;;;;1.85;0.60;;;24.40;41.90;;;;;;5137455;27;20434;-39
2022/05/26 01:31:20;;;;;;;2.10;0.75;;;24.50;41.90;;;;;;5125858;27;20027;-40
2022/05/26 01:34:06;;;;;;;1.40;0.50;;;24.40;41.90;;;;;;5136918;27;20019;-40
2022/05/26 01:36:55;;;;;;;1.95;0.70;;;24.40;42.00;;;;;;5136309;27;20577;-41
2022/05/26 01:39:39;;;;;;;1.45;0.60;;;24.40;42.10;;;;;;5125771;27;20019;-39
2022/05/26 01:42:17;;;;;;;1.90;0.60;;;24.40;42.10;;;;;;5135056;27;20031;-39
2022/05/26 01:45:20;;;;;;;1.83;0.70;;;24.40;42.20;;;;;;5135587;27;20027;-40
2022/05/26 01:47:49;;;;;;;1.35;0.70;;;24.40;42.20;;;;;;5135884;27;20026;-39
2022/05/26 01:50:14;;;;;;;1.42;0.60;;;24.40;42.20;;;;;;5137203;27;20132;-40
2022/05/26 01:53:02;;;;;;;1.42;0.50;;;24.40;42.20;;;;;;5137184;27;20039;-40
2022/05/26 01:55:40;;;;;;;2.08;0.63;;;24.40;42.30;;;;;;5136872;27;20015;-39
2022/05/26 01:58:12;;;;;;;2.22;0.60;;;24.40;42.30;;;;;;5135009;27;20537;-39
2022/05/26 02:00:38;;;;;;;1.55;0.50;;;24.40;42.30;;;;;;5117943;27;20055;-39
2022/05/26 02:03:09;;;;;;;2.65;0.88;;;24.40;42.40;;;;;;5135179;27;20022;-40
2022/05/26 02:05:40;;;;;;;1.88;0.70;;;24.40;42.40;;;;;;5118648;28;20019;-39
2022/05/26 02:08:15;;;;;;;1.27;0.50;;;24.40;42.40;;;;;;5135995;27;20453;-39
2022/05/26 02:10:52;;;;;;;1.63;0.60;;;24.40;42.40;;;;;;5135940;27;20020;-39
2022/05/26 02:13:22;;;;;;;3.28;0.70;;;24.40;42.50;;;;;;5119083;27;20004;-40
2022/05/26 02:15:54;;;;;;;1.40;0.60;;;24.40;42.50;;;;;;5134862;27;20505;-39
2022/05/26 02:18:22;;;;;;;2.42;0.80;;;24.40;42.50;;;;;;5135972;27;20007;-39
2022/05/26 02:20:57;;;;;;;1.50;0.60;;;24.40;42.60;;;;;;5135795;27;20038;-39
2022/05/26 02:23:55;;;;;;;1.63;0.70;;;24.40;42.60;;;;;;5117723;27;20020;-39
2022/05/26 02:26:21;;;;;;;1.67;0.77;;;24.30;42.60;;;;;;5134235;27;20475;-42
2022/05/26 02:31:33;;;;;;;2.75;0.70;;;24.40;42.60;;;;;;5135639;27;20163;-38
2022/05/26 02:34:00;;;;;;;3.05;0.80;;;24.40;42.60;;;;;;5134158;28;20090;-40
2022/05/26 02:36:28;;;;;;;2.90;0.80;;;24.30;42.60;;;;;;5136819;27;20047;-40
2022/05/26 02:38:54;;;;;;;2.33;0.80;;;24.30;42.60;;;;;;5135730;27;20019;-39
2022/05/26 02:41:21;;;;;;;2.50;0.90;;;24.30;42.70;;;;;;5133976;28;20015;-39
2022/05/26 02:43:47;;;;;;;2.65;0.80;;;24.30;42.70;;;;;;5135453;27;20034;-41
2022/05/26 02:46:42;;;;;;;2.33;0.60;;;24.30;42.70;;;;;;5133850;28;20015;-44
2022/05/26 02:49:17;;;;;;;2.95;1.00;;;24.30;42.80;;;;;;5134532;27;20019;-41
2022/05/26 02:52:16;;;;;;;1.85;0.70;;;24.30;42.90;;;;;;5133289;28;20031;-41
2022/05/26 02:55:04;;;;;;;2.35;0.80;;;24.30;42.90;;;;;;5134306;27;20066;-39
2022/05/26 02:57:50;;;;;;;2.47;0.80;;;24.30;42.90;;;;;;5133754;28;20015;-42
2022/05/26 03:00:18;;;;;;;2.50;0.80;;;24.30;42.90;;;;;;5133973;28;20020;-41
2022/05/26 03:02:56;;;;;;;2.30;1.00;;;24.30;43.00;;;;;;5133624;28;20034;-39
2022/05/26 03:05:26;;;;;;;3.95;1.00;;;24.30;43.10;;;;;;5137243;27;20015;-39
2022/05/26 03:07:53;;;;;;;3.17;0.90;;;24.20;43.10;;;;;;5138646;27;20044;-39
2022/05/26 03:10:26;;;;;;;2.05;0.70;;;24.30;43.10;;;;;;5119762;27;20015;-39
2022/05/26 03:12:56;;;;;;;3.42;1.10;;;24.30;43.10;;;;;;5137072;27;20026;-38
2022/05/26 03:15:22;;;;;;;4.28;1.10;;;24.30;43.20;;;;;;5138281;27;20086;-38
2022/05/26 03:17:49;;;;;;;2.83;0.80;;;24.20;43.10;;;;;;5139076;27;20094;-38
2022/05/26 03:20:15;;;;;;;2.50;1.00;;;24.30;43.20;;;;;;5138093;27;20099;-38
2022/05/26 03:22:42;;;;;;;2.60;0.70;;;24.30;43.20;;;;;;5138309;27;20080;-38
2022/05/26 03:25:08;;;;;;;2.33;0.90;;;24.20;43.20;;;;;;5139005;27;20070;-39
2022/05/26 03:27:35;;;;;;;4.13;1.10;;;24.20;43.20;;;;;;5137026;27;20538;-38
2022/05/26 03:30:01;;;;;;;3.45;1.13;;;24.20;43.20;;;;;;5138737;27;20011;-39
2022/05/26 03:32:27;;;;;;;3.85;1.30;;;24.20;43.20;;;;;;5138201;27;20015;-38
2022/05/26 03:43:06;;;;;;;2.75;0.80;;;24.20;43.40;;;;;;5138205;27;20412;-38
2022/05/26 03:45:33;;;;;;;4.32;1.42;;;24.30;43.40;;;;;;5136776;27;20011;-38
2022/05/26 03:47:59;;;;;;;4.55;1.00;;;24.20;43.40;;;;;;5136974;27;20039;-38
2022/05/26 03:50:25;;;;;;;3.75;0.95;;;24.20;43.40;;;;;;5137978;27;20065;-38
2022/05/26 03:52:51;;;;;;;4.63;1.25;;;24.20;43.40;;;;;;5137005;27;20474;-38
2022/05/26 03:55:18;;;;;;;3.38;1.10;;;24.20;43.40;;;;;;5137352;27;20015;-39
2022/05/26 03:57:45;;;;;;;3.05;1.20;;;24.20;43.50;;;;;;5137632;27;20043;-38
2022/05/26 04:00:12;;;;;;;4.15;1.10;;;24.20;43.50;;;;;;5137587;27;20473;-38
2022/05/26 04:02:37;;;;;;;3.17;1.02;;;24.20;43.50;;;;;;5135982;27;20080;-40
2022/05/26 04:05:04;;;;;;;4.05;1.20;;;24.20;43.50;;;;;;5137486;27;20023;-39
2022/05/26 04:07:30;;;;;;;3.63;1.00;;;24.20;43.60;;;;;;5137154;27;20469;-38
2022/05/26 04:09:56;;;;;;;4.30;1.20;;;24.20;43.60;;;;;;5137137;27;20004;-39
2022/05/26 04:12:22;;;;;;;4.43;1.17;;;24.20;43.50;;;;;;5137013;27;20023;-38
2022/05/26 04:14:47;;;;;;;4.28;1.40;;;24.20;43.60;;;;;;5137257;27;20461;-38
2022/05/26 04:17:14;;;;;;;3.78;1.10;;;24.20;43.50;;;;;;5136248;27;20473;-38
2022/05/26 04:19:41;;;;;;;3.28;1.10;;;24.10;43.60;;;;;;5136791;27;20027;-38
2022/05/26 04:22:17;;;;;;;3.45;1.05;;;24.20;43.70;;;;;;5136375;27;20520;-39
2022/05/26 04:24:44;;;;;;;5.20;1.20;;;24.20;43.70;;;;;;5136872;27;20031;-38
2022/05/26 04:27:10;;;;;;;4.18;1.10;;;24.20;43.70;;;;;;5136968;27;20008;-38
2022/05/26 04:29:36;;;;;;;3.38;1.15;;;24.20;43.70;;;;;;5137391;27;20497;-39
2022/05/26 04:32:03;;;;;;;4.28;1.17;;;24.20;43.70;;;;;;5137330;27;20079;-38
2022/05/26 04:34:29;;;;;;;3.58;1.10;;;24.10;43.70;;;;;;5135936;27;20056;-38
2022/05/26 04:36:55;;;;;;;3.70;1.23;;;24.20;43.70;;;;;;5135568;27;20138;-39
2022/05/26 04:39:22;;;;;;;4.55;1.27;;;24.20;43.70;;;;;;5137394;27;20484;-38
2022/05/26 04:41:48;;;;;;;3.90;1.30;;;24.20;43.80;;;;;;5137653;27;20035;-39
2022/05/26 04:44:16;;;;;;;4.18;1.13;;;24.20;43.80;;;;;;5138137;27;20523;-39
2022/05/26 04:46:42;;;;;;;3.33;1.02;;;24.20;43.70;;;;;;5137561;27;20063;-39
2022/05/26 04:49:08;;;;;;;3.28;1.02;;;24.20;43.70;;;;;;5137444;27;20090;-38
2022/05/26 04:51:35;;;;;;;2.97;1.00;;;24.30;43.60;;;;;;5136658;27;20100;-40
2022/05/26 04:54:02;;;;;;;5.40;1.20;;;24.30;43.60;;;;;;5136194;27;20034;-39
2022/05/26 04:56:28;;;;;;;3.72;1.20;;;24.30;43.60;;;;;;5136352;27;20135;-38
2022/05/26 04:58:54;;;;;;;5.25;1.48;;;24.30;43.50;;;;;;5117857;27;20032;-39
2022/05/26 05:01:20;;;;;;;4.07;1.10;;;24.30;43.50;;;;;;5136873;27;20011;-40
2022/05/26 05:03:46;;;;;;;3.97;1.23;;;24.30;43.50;;;;;;5118227;27;20038;-38
2022/05/26 05:06:13;;;;;;;4.63;1.30;;;24.40;43.40;;;;;;5136503;27;20016;-39
2022/05/26 05:08:39;;;;;;;3.83;1.27;;;24.40;43.40;;;;;;5136659;27;20011;-38
2022/05/26 05:11:04;;;;;;;2.95;1.25;;;24.40;43.30;;;;;;5137008;27;20033;-38
2022/05/26 05:13:32;;;;;;;3.88;1.25;;;24.40;43.30;;;;;;5136736;27;20042;-38
2022/05/26 05:16:03;;;;;;;4.53;1.30;;;24.40;43.30;;;;;;5136189;27;20033;-38
2022/05/26 05:18:30;;;;;;;4.45;1.10;;;24.40;43.20;;;;;;5137267;27;20022;-38
2022/05/26 05:20:57;;;;;;;3.22;1.10;;;24.50;43.10;;;;;;5136615;27;20063;-38
2022/05/26 05:23:24;;;;;;;3.28;1.35;;;24.50;43.00;;;;;;5136868;27;20027;-40
2022/05/26 05:25:51;;;;;;;4.28;1.30;;;24.60;43.00;;;;;;5136378;27;20011;-38
2022/05/26 05:28:25;;;;;;;3.78;1.25;;;24.60;42.80;;;;;;5136711;27;20020;-40
2022/05/26 05:30:59;;;;;;;3.88;1.10;;;24.70;42.70;;;;;;5135407;27;20011;-39
2022/05/26 05:33:55;;;;;;;4.45;1.20;;;24.80;42.50;;;;;;5136878;27;20012;-41
2022/05/26 05:36:26;;;;;;;3.25;1.23;;;24.80;42.30;;;;;;5137628;27;20011;-39
2022/05/26 05:38:51;;;;;;;3.05;1.08;;;25.00;42.00;;;;;;5137800;27;20023;-39
2022/05/26 05:41:20;;;;;;;4.45;1.45;;;25.00;41.90;;;;;;5135677;27;20015;-39
2022/05/26 05:43:46;;;;;;;2.20;1.13;;;25.10;41.90;;;;;;5137544;27;20026;-39
2022/05/26 05:46:14;;;;;;;2.95;1.13;;;25.20;41.60;;;;;;5118144;27;20016;-39
2022/05/26 05:48:43;;;;;;;4.68;1.60;;;25.20;41.50;;;;;;5135688;27;20053;-38
2022/05/26 05:51:09;;;;;;;4.65;1.25;;;25.40;41.50;;;;;;5135318;27;20023;-38
2022/05/26 05:53:36;;;;;;;3.40;1.27;;;25.60;41.00;;;;;;5135033;27;20024;-39
2022/05/26 05:56:03;;;;;;;4.18;1.13;;;25.80;40.80;;;;;;5136419;27;20015;-39
2022/05/26 05:58:29;;;;;;;3.53;1.15;;;25.90;40.40;;;;;;5136014;27;20030;-38
2022/05/26 06:00:55;;;;;;;4.05;1.30;;;26.10;40.20;;;;;;5136333;27;20037;-38
2022/05/26 06:03:22;;;;;;;4.00;1.42;;;26.20;40.00;;;;;;5136580;27;20106;-38
2022/05/26 06:05:48;;;;;;;3.20;1.23;;;26.40;39.50;;;;;;5136739;27;20026;-36
2022/05/26 06:08:15;;;;;;;3.20;1.17;;;26.60;39.10;;;;;;5135854;27;20011;-38
2022/05/26 06:10:41;;;;;;;4.93;1.60;;;26.90;38.80;;;;;;5135560;27;20381;-37
2022/05/26 06:13:06;;;;;;;3.92;1.20;;;27.10;38.40;;;;;;5136483;27;20031;-37
2022/05/26 06:15:33;;;;;;;2.50;1.13;;;27.30;38.00;;;;;;5136109;27;20472;-38
2022/05/26 06:17:59;;;;;;;2.28;1.00;;;27.40;37.60;;;;;;5135430;27;20016;-37
2022/05/26 06:20:26;;;;;;;2.78;1.33;;;27.50;37.50;;;;;;5134222;27;20118;-37
2022/05/26 06:22:52;;;;;;;3.88;1.30;;;27.70;37.90;;;;;;5135620;27;20035;-38
2022/05/26 06:25:18;;;;;;;3.75;1.30;;;27.70;37.10;;;;;;5134144;27;20522;-38
2022/05/26 06:30:31;;;;;;;5.03;1.65;;;28.00;36.90;;;;;;5135658;27;20031;-38
2022/05/26 06:38:31;;;;;;;4.07;1.42;;;27.90;36.60;;;;;;5135244;28;20058;-38
2022/05/26 06:42:05;;;;;;;3.90;1.60;;;27.90;36.60;;;;;;5137950;27;20061;-38
2022/05/26 06:43:45;;;;;;;3.30;1.30;;;28.00;36.60;;;;;;5138078;27;20035;-36
2022/05/26 06:46:12;;;;;;;3.92;1.30;;;28.00;36.60;;;;;;5138430;27;20018;-36
2022/05/26 06:48:38;;;;;;;3.35;1.38;;;28.10;36.60;;;;;;5137242;27;20026;-36
2022/05/26 06:51:05;;;;;;;4.45;1.75;;;28.10;36.50;;;;;;5138112;27;20469;-36
2022/05/26 06:53:31;;;;;;;4.30;1.40;;;28.00;36.60;;;;;;5138355;27;20015;-36
2022/05/26 06:55:58;;;;;;;3.60;1.27;;;27.80;36.80;;;;;;5138619;27;20050;-36
2022/05/26 06:58:26;;;;;;;4.60;1.52;;;27.70;37.10;;;;;;5138395;27;20025;-39
2022/05/26 07:00:52;;;;;;;4.22;1.58;;;27.70;37.20;;;;;;5137444;27;20047;-39
2022/05/26 07:03:18;;;;;;;3.60;1.42;;;27.80;37.00;;;;;;5138360;27;20023;-38
2022/05/26 07:05:43;;;;;;;2.45;1.20;;;28.00;36.90;;;;;;5138528;27;20038;-39
2022/05/26 07:08:09;;;;;;;4.07;1.40;;;28.10;36.60;;;;;;5138683;27;20427;-37
2022/05/26 07:10:35;;;;;;;5.47;1.67;;;28.20;36.20;;;;;;5138474;27;20042;-36
2022/05/26 07:13:01;;;;;;;4.93;1.33;;;28.20;36.40;;;;;;5137402;27;20068;-39
2022/05/26 07:15:27;;;;;;;4.18;1.77;;;28.30;36.40;;;;;;5138296;27;20035;-39
2022/05/26 07:17:53;;;;;;;3.17;1.27;;;28.20;36.20;;;;;;5138207;27;20465;-38
2022/05/26 07:20:19;;;;;;;2.92;1.20;;;28.30;36.10;;;;;;5137743;27;20016;-38
2022/05/26 07:22:46;;;;;;;4.20;1.40;;;28.40;36.30;;;;;;5137399;27;20043;-35
2022/05/26 07:25:12;;;;;;;5.03;1.52;;;28.50;36.10;;;;;;5137725;27;20484;-39
2022/05/26 07:27:38;;;;;;;2.83;1.08;;;28.50;35.90;;;;;;5136597;27;20478;-39
2022/05/26 07:30:05;;;;;;;5.05;1.40;;;28.40;35.90;;;;;;5138090;27;20023;-36
2022/05/26 07:32:32;;;;;;;4.72;1.73;;;28.30;36.30;;;;;;5137975;27;20011;-36
2022/05/26 07:34:59;;;;;;;4.80;1.48;;;28.20;36.20;;;;;;5137836;27;20053;-38
2022/05/26 07:42:55;;;;;;;3.67;1.67;;;28.20;36.20;;;;;;5137832;27;20392;-38
2022/05/26 07:45:21;;;;;;;4.72;1.58;;;28.30;36.30;;;;;;5137573;27;20031;-36
2022/05/26 07:47:47;;;;;;;2.38;1.13;;;28.30;36.20;;;;;;5137791;27;20019;-42
2022/05/26 07:50:19;;;;;;;3.83;1.48;;;28.50;36.00;;;;;;5137833;27;20018;-37
2022/05/26 07:52:47;;;;;;;4.35;1.50;;;28.70;35.70;;;;;;5135959;27;20023;-40
2022/05/26 07:55:13;;;;;;;3.88;1.50;;;29.00;35.40;;;;;;5137921;27;20377;-44
2022/05/26 07:57:39;;;;;;;2.95;1.17;;;29.10;35.20;;;;;;5138090;27;20049;-38
2022/05/26 08:00:06;;;;;;;3.75;1.50;;;29.00;35.00;;;;;;5138242;27;20057;-40
2022/05/26 08:02:32;;;;;;;4.05;1.58;;;28.90;35.80;;;;;;5137724;27;20031;-39
2022/05/26 08:04:59;;;;;;;3.35;1.45;;;28.80;35.70;;;;;;5137637;27;20020;-38
2022/05/26 08:07:26;;;;;;;3.47;1.42;;;28.50;35.50;;;;;;5136981;27;20012;-38
2022/05/26 08:09:53;;;;;;;4.22;1.55;;;28.50;35.80;;;;;;5136746;27;20067;-42
2022/05/26 08:12:19;;;;;;;4.78;1.58;;;28.60;36.00;;;;;;5136695;27;20469;-37
2022/05/26 08:14:47;;;;;;;5.20;1.90;;;28.50;35.70;;;;;;5136577;27;20034;-39
2022/05/26 08:17:13;;;;;;;3.60;1.35;;;28.50;36.10;;;;;;5136714;27;20022;-42
2022/05/26 08:19:39;;;;;;;3.30;1.50;;;28.50;36.20;;;;;;5136986;27;20019;-36
2022/05/26 08:22:05;;;;;;;3.03;1.35;;;28.50;36.10;;;;;;5135624;27;20050;-36
2022/05/26 08:24:31;;;;;;;3.88;1.40;;;28.50;35.70;;;;;;5137499;27;20030;-37
2022/05/26 08:26:57;;;;;;;4.40;1.50;;;28.50;35.70;;;;;;5137815;27;20007;-37
2022/05/26 08:29:24;;;;;;;4.05;1.40;;;28.50;35.90;;;;;;5137019;27;20015;-37
2022/05/26 08:31:51;;;;;;;4.55;1.98;;;28.30;36.00;;;;;;5136359;27;20025;-38
2022/05/26 08:34:17;;;;;;;4.15;1.42;;;28.30;36.30;;;;;;5135110;27;20064;-38
2022/05/26 08:36:44;;;;;;;3.65;1.40;;;28.30;36.30;;;;;;5136570;27;20022;-37
2022/05/26 08:39:13;;;;;;;3.78;1.60;;;28.30;36.10;;;;;;5136293;27;20022;-37
2022/05/26 08:41:46;;;;;;;3.85;1.60;;;28.20;36.30;;;;;;5136686;27;20019;-37
2022/05/26 08:44:20;;;;;;;3.38;1.30;;;28.10;36.50;;;;;;5135698;27;20012;-38
2022/05/26 08:46:48;;;;;;;3.83;1.60;;;28.10;36.50;;;;;;5120805;27;20087;-37
2022/05/26 08:49:26;;;;;;;3.17;1.42;;;28.00;36.60;;;;;;5118333;27;20458;-37
2022/05/26 08:51:55;;;;;;;3.85;1.65;;;27.90;36.70;;;;;;5117876;27;20008;-37
2022/05/26 08:54:27;;;;;;;4.63;1.53;;;27.80;36.90;;;;;;5136581;27;20055;-37
2022/05/26 08:56:54;;;;;;;4.53;1.50;;;27.80;37.00;;;;;;5134997;27;20015;-37
2022/05/26 08:59:21;;;;;;;3.60;1.48;;;27.80;37.00;;;;;;5134708;27;20023;-37
2022/05/26 09:01:46;;;;;;;4.28;1.67;;;27.70;37.00;;;;;;5135008;27;20034;-39
2022/05/26 09:04:12;;;;;;;3.45;1.50;;;27.70;37.30;;;;;;5135077;27;20473;-39
2022/05/26 09:14:56;;;;;;;4.55;1.58;;;27.60;37.30;;;;;;5120723;27;20030;-42
2022/05/26 09:17:23;;;;;;;3.72;1.63;;;27.60;37.20;;;;;;5134508;27;20393;-39
2022/05/26 09:19:50;;;;;;;4.07;1.70;;;27.60;37.30;;;;;;5134710;27;20015;-39
2022/05/26 09:22:40;;;;;;;4.15;1.52;;;27.60;37.30;;;;;;5134039;27;20043;-38
2022/05/26 09:25:12;;;;;;;3.83;1.58;;;27.60;37.90;;;;;;5135209;27;20503;-40
2022/05/26 09:27:38;;;;;;;4.50;1.50;;;27.60;37.40;;;;;;5135074;27;20016;-39
2022/05/26 09:30:32;;;;;;;3.55;1.52;;;27.60;37.60;;;;;;5135451;27;20018;-39
2022/05/26 09:32:58;;;;;;;4.10;1.83;;;27.60;37.90;;;;;;5135049;27;20022;-40
2022/05/26 09:35:26;;;;;;;4.20;1.58;;;27.60;37.90;;;;;;5135285;27;20057;-42
2022/05/26 09:37:57;;;;;;;3.80;1.50;;;27.60;37.40;;;;;;5134859;27;20017;-44
2022/05/26 09:40:31;;;;;;;4.10;1.58;;;27.50;37.50;;;;;;5135363;27;20019;-39
2022/05/26 09:43:06;;;;;;;3.13;1.52;;;27.40;37.60;;;;;;5135430;27;20015;-37
2022/05/26 09:45:44;;;;;;;4.93;1.65;;;27.40;37.80;;;;;;5135370;27;20011;-38
2022/05/26 09:48:34;;;;;;;2.63;1.60;;;27.40;37.80;;;;;;5116819;27;20016;-38
2022/05/26 09:51:30;;;;;;;3.03;1.40;;;27.40;37.60;;;;;;5121425;27;20102;-41
2022/05/26 09:53:56;;;;;;;3.70;1.65;;;27.50;37.90;;;;;;5133056;27;20481;-38
2022/05/26 09:56:28;;;;;;;3.88;1.52;;;27.40;37.60;;;;;;5133506;27;20040;-39
2022/05/26 09:58:54;;;;;;;4.93;2.05;;;27.50;37.80;;;;;;5134853;27;20019;-39
2022/05/26 10:01:23;;;;;;;3.85;1.50;;;27.50;37.80;;;;;;5134758;27;20029;-37
2022/05/26 10:04:16;;;;;;;3.28;1.38;;;27.50;37.60;;;;;;5134639;27;20023;-37
2022/05/26 10:07:04;;;;;;;4.18;1.63;;;27.60;37.50;;;;;;5135134;27;20019;-37
2022/05/26 10:09:37;;;;;;;4.80;1.90;;;27.60;37.30;;;;;;5133918;27;20015;-37
2022/05/26 10:12:19;;;;;;;4.68;2.00;;;27.50;37.30;;;;;;5134852;27;20469;-37
2022/05/26 10:15:06;;;;;;;3.38;1.60;;;27.50;37.50;;;;;;5134099;27;20034;-37
2022/05/26 10:17:36;;;;;;;3.65;1.55;;;27.50;37.60;;;;;;5133534;27;20015;-37
2022/05/26 10:20:08;;;;;;;5.13;1.77;;;27.50;38.30;;;;;;5134653;27;20068;-38
2022/05/26 10:23:11;;;;;;;4.78;2.03;;;27.50;37.70;;;;;;5134687;27;20039;-37
2022/05/26 10:26:05;;;;;;;3.50;1.50;;;27.50;37.60;;;;;;5135183;27;20031;-40
2022/05/26 10:28:35;;;;;;;5.78;2.22;;;27.60;37.70;;;;;;5133244;27;20015;-38
2022/05/26 10:31:16;;;;;;;4.88;1.65;;;27.50;37.50;;;;;;5134999;27;20098;-38
2022/05/26 10:34:00;;;;;;;3.67;1.35;;;27.60;37.60;;;;;;5134906;27;20015;-39
2022/05/26 10:36:35;;;;;;;4.18;1.73;;;27.60;37.60;;;;;;5134925;27;20038;-39
2022/05/26 10:39:16;;;;;;;2.38;1.42;;;27.50;37.50;;;;;;5135136;28;20048;-37
2022/05/26 10:42:28;;;;;;;3.45;1.50;;;27.50;37.70;;;;;;5135038;28;20061;-38
2022/05/26 10:45:15;;;;;;;3.67;1.75;;;27.40;37.60;;;;;;5128853;28;20040;-37
2022/05/26 10:47:48;;;;;;;2.67;1.30;;;27.50;37.70;;;;;;5133556;28;20076;-38
2022/05/26 10:50:30;;;;;;;4.07;1.55;;;27.50;37.60;;;;;;5134097;28;20011;-39
2022/05/26 10:53:01;;;;;;;3.17;1.52;;;27.50;37.50;;;;;;5133510;28;20019;-42
2022/05/26 10:55:54;;;;;;;3.22;1.55;;;27.50;37.50;;;;;;5133873;28;20058;-39
2022/05/26 10:58:33;;;;;;;3.42;1.60;;;27.50;37.50;;;;;;5119775;28;20026;-40
2022/05/26 11:01:03;;;;;;;3.25;1.65;;;27.50;37.60;;;;;;5117159;28;20091;-40
2022/05/26 11:03:43;;;;;;;3.15;1.40;;;27.50;37.60;;;;;;5137709;27;20055;-42
2022/05/26 11:06:21;;;;;;;3.75;1.50;;;27.50;37.50;;;;;;5119858;28;20017;-39
2022/05/26 11:09:00;;;;;;;4.25;1.73;;;27.50;37.50;;;;;;5136890;27;20027;-40
2022/05/26 11:11:37;;;;;;;4.82;1.70;;;27.50;37.60;;;;;;5134986;28;20033;-42
2022/05/26 11:14:06;;;;;;;3.67;1.40;;;27.50;37.60;;;;;;5135806;28;20110;-42
2022/05/26 11:19:43;;;;;;;5.50;2.15;;;27.40;37.60;;;;;;5140478;28;20065;-43
2022/05/26 11:22:09;;;;;;;3.13;1.55;;;27.40;37.70;;;;;;5140237;28;20035;-42
2022/05/26 11:24:35;;;;;;;3.25;1.77;;;27.40;37.70;;;;;;5137595;28;20015;-41
2022/05/26 11:27:08;;;;;;;4.25;1.60;;;27.40;37.70;;;;;;5141347;27;20068;-40
2022/05/26 11:29:39;;;;;;;3.90;1.77;;;27.40;37.80;;;;;;5142116;27;20012;-41
2022/05/26 11:38:07;;;;;;;2.90;1.42;;;27.30;37.90;;;;;;5141512;27;20076;-40
2022/05/26 11:40:35;;;;;;;2.67;1.50;;;27.20;37.90;;;;;;5142665;27;20064;-41
2022/05/26 11:43:02;;;;;;;2.85;1.55;;;27.20;38.00;;;;;;5141237;27;20020;-40
2022/05/26 11:45:32;;;;;;;2.78;1.38;;;27.20;38.00;;;;;;5141750;27;20015;-40
2022/05/26 11:48:03;;;;;;;3.20;1.38;;;27.20;38.10;;;;;;5140854;27;20015;-40
2022/05/26 11:50:50;;;;;;;3.97;1.33;;;27.20;38.10;;;;;;5137516;27;20113;-41
2022/05/26 11:53:37;;;;;;;2.45;1.40;;;27.10;38.10;;;;;;5124552;27;20023;-39
2022/05/26 11:56:05;;;;;;;3.22;1.30;;;27.10;38.10;;;;;;5137116;27;20026;-41
2022/05/26 11:58:41;;;;;;;3.28;1.50;;;27.10;38.20;;;;;;5119980;27;20015;-39
2022/05/26 12:01:19;;;;;;;3.00;1.40;;;27.10;38.30;;;;;;5137440;27;20501;-40
2022/05/26 12:04:01;;;;;;;3.17;1.60;;;27.10;38.30;;;;;;5139220;27;20132;-40
2022/05/26 12:06:35;;;;;;;2.67;1.23;;;27.00;38.30;;;;;;5139660;27;20094;-40
2022/05/26 12:09:17;;;;;;;2.88;1.42;;;27.00;38.30;;;;;;5139285;27;20092;-40
2022/05/26 12:12:03;;;;;;;3.30;1.77;;;27.00;38.30;;;;;;5139486;27;20026;-39
2022/05/26 12:14:42;;;;;;;3.50;1.30;;;27.00;38.30;;;;;;5140160;27;20011;-39
2022/05/26 12:17:30;;;;;;;3.42;1.58;;;27.00;38.30;;;;;;5122887;27;20041;-39
2022/05/26 12:20:04;;;;;;;2.65;1.40;;;27.00;38.40;;;;;;5139445;27;20377;-39
2022/05/26 12:22:39;;;;;;;4.57;1.60;;;26.90;38.30;;;;;;5137349;27;20046;-39
2022/05/26 12:25:19;;;;;;;3.00;1.30;;;26.90;38.30;;;;;;5138573;27;20023;-38
2022/05/26 12:27:53;;;;;;;2.95;1.35;;;26.90;38.40;;;;;;5138505;27;20046;-40
2022/05/26 12:30:41;;;;;;;2.15;1.30;;;26.90;38.40;;;;;;5137722;27;20015;-40
2022/05/26 12:33:42;;;;;;;3.63;1.38;;;26.90;38.40;;;;;;5137656;27;20015;-41
2022/05/26 12:36:29;;;;;;;2.67;1.33;;;26.90;38.50;;;;;;5137233;27;20019;-39
2022/05/26 12:39:02;;;;;;;2.47;1.20;;;26.90;38.50;;;;;;5137049;27;20015;-39
2022/05/26 12:41:38;;;;;;;3.60;1.50;;;26.90;38.50;;;;;;5138182;27;20019;-40
2022/05/26 12:44:22;;;;;;;3.42;1.33;;;26.80;38.50;;;;;;5137861;27;20131;-38
2022/05/26 12:46:57;;;;;;;2.88;1.30;;;26.80;38.50;;;;;;5138668;27;20060;-41
2022/05/26 12:49:31;;;;;;;4.07;1.73;;;26.80;38.50;;;;;;5139914;27;20011;-40
2022/05/26 12:52:19;;;;;;;2.45;1.35;;;26.80;38.60;;;;;;5139782;27;20019;-41
2022/05/26 12:55:10;;;;;;;1.80;1.23;;;26.80;38.50;;;;;;5140072;27;20008;-38
2022/05/26 12:57:36;;;;;;;2.35;1.20;;;26.80;38.50;;;;;;5138373;27;20108;-39
2022/05/26 13:00:21;;;;;;;4.00;1.70;;;26.80;38.50;;;;;;5120839;27;20008;-39
2022/05/26 13:02:53;;;;;;;1.73;1.10;;;26.80;38.60;;;;;;5136519;27;20076;-39
2022/05/26 13:05:19;;;;;;;2.20;1.23;;;26.80;38.50;;;;;;5138338;27;20015;-40
2022/05/26 13:07:50;;;;;;;2.53;1.20;;;26.80;38.50;;;;;;5138107;27;20477;-39
2022/05/26 13:10:16;;;;;;;2.78;1.33;;;26.80;38.50;;;;;;5138431;27;20075;-40
2022/05/26 13:12:46;;;;;;;2.63;1.40;;;26.80;38.50;;;;;;5140196;27;20039;-40
2022/05/26 13:15:11;;;;;;;3.10;1.08;;;26.80;38.50;;;;;;5120775;27;20018;-39
2022/05/26 13:17:44;;;;;;;2.90;1.30;;;26.80;38.50;;;;;;5138363;27;20027;-42
2022/05/26 13:20:40;;;;;;;3.17;1.15;;;26.70;38.50;;;;;;5139585;27;20075;-42
2022/05/26 13:23:05;;;;;;;3.08;1.25;;;26.80;38.50;;;;;;5134891;27;20125;-39
2022/05/26 13:25:32;;;;;;;3.53;1.40;;;26.80;38.50;;;;;;5120981;27;20038;-39
2022/05/26 13:28:06;;;;;;;2.72;1.30;;;26.80;38.50;;;;;;5138254;27;20029;-39
2022/05/26 13:33:26;;;;;;;2.90;1.20;;;26.70;38.50;;;;;;5138965;27;20107;-41
2022/05/26 13:35:56;;;;;;;3.10;1.20;;;26.70;38.60;;;;;;5138572;27;20019;-40
2022/05/26 13:38:36;;;;;;;2.90;1.35;;;26.70;38.60;;;;;;5138549;27;20011;-40
2022/05/26 13:41:03;;;;;;;2.38;1.02;;;26.70;38.50;;;;;;5136375;27;20019;-39
2022/05/26 13:43:30;;;;;;;2.90;1.15;;;26.70;38.50;;;;;;5136335;27;20026;-40
2022/05/26 13:45:56;;;;;;;2.92;1.40;;;26.70;38.60;;;;;;5119119;27;20015;-39
2022/05/26 13:48:38;;;;;;;2.45;1.20;;;26.60;38.60;;;;;;5138572;27;20461;-39
2022/05/26 13:51:26;;;;;;;2.10;1.13;;;26.70;38.70;;;;;;5140935;27;20019;-45
2022/05/26 13:54:13;;;;;;;3.53;1.20;;;26.60;38.70;;;;;;5140663;27;20044;-39
2022/05/26 13:56:43;;;;;;;2.90;1.20;;;26.60;38.70;;;;;;5142010;27;20019;-43